Time;durP1;ratioP1;P1;durP2;ratioP2;P2;SDS_P1;SDS_P2;PMS_P1;PMS_P2;Temp;Humidity;BMP_temperature;BMP_pressure;BME280_temperature;BME280_humidity;BME280_pressure;Samples;Min_cycle;Max_cycle;Signal;HPM_P1;HPM_P2
2021/04/02 00:00:33;;;;;;;72.13;31.38;;;11.10;99.90;;;;;;5021609;28;20050;-89
2021/04/02 00:03:05;;;;;;;65.10;30.95;;;11.00;99.90;;;;;;5023133;28;20096;-89
2021/04/02 00:05:31;;;;;;;63.67;30.77;;;11.00;99.90;;;;;;5032707;28;20451;-90
2021/04/02 00:07:58;;;;;;;64.57;30.95;;;11.00;99.90;;;;;;5013604;28;20144;-90
2021/04/02 00:10:35;;;;;;;68.70;32.08;;;11.00;99.90;;;;;;5008468;28;20042;-91
2021/04/02 00:13:04;;;;;;;62.03;32.05;;;11.00;99.90;;;;;;5021141;28;20046;-92
2021/04/02 00:15:31;;;;;;;68.15;33.22;;;11.00;99.90;;;;;;5015577;28;20050;-90
2021/04/02 00:18:01;;;;;;;67.82;33.13;;;11.00;99.90;;;;;;5015828;28;20069;-90
2021/04/02 00:20:30;;;;;;;73.32;34.97;;;11.00;99.90;;;;;;4996920;28;20058;-90
2021/04/02 00:22:56;;;;;;;66.10;32.40;;;11.10;99.90;;;;;;5015222;28;20066;-90
2021/04/02 00:25:23;;;;;;;67.55;33.95;;;11.10;99.90;;;;;;4998294;28;20137;-91
2021/04/02 00:27:49;;;;;;;73.63;33.97;;;11.10;99.90;;;;;;5010936;28;20592;-90
2021/04/02 00:30:24;;;;;;;72.20;35.40;;;11.00;99.90;;;;;;5015228;28;20104;-91
2021/04/02 00:32:51;;;;;;;80.10;35.42;;;11.10;99.90;;;;;;5014918;28;20085;-91
2021/04/02 00:35:17;;;;;;;68.53;37.08;;;11.00;99.90;;;;;;4997107;28;20050;-89
2021/04/02 00:37:44;;;;;;;73.45;36.10;;;10.90;99.90;;;;;;4998172;28;20088;-93
2021/04/02 00:40:30;;;;;;;74.47;36.70;;;10.80;99.90;;;;;;4997239;28;20144;-91
2021/04/02 00:43:02;;;;;;;73.03;37.63;;;10.70;99.90;;;;;;4998063;28;20048;-91
2021/04/02 00:45:29;;;;;;;67.40;36.63;;;10.60;99.90;;;;;;4997730;28;20075;-90
2021/04/02 00:47:57;;;;;;;74.93;37.40;;;10.60;99.90;;;;;;5015026;28;20054;-88
2021/04/02 00:50:31;;;;;;;71.80;37.17;;;10.50;99.90;;;;;;4997368;28;20057;-90
2021/04/02 00:52:58;;;;;;;71.15;36.22;;;10.50;99.90;;;;;;5015147;28;20056;-92
2021/04/02 00:55:25;;;;;;;77.30;36.92;;;10.50;99.90;;;;;;4997183;28;20078;-89
2021/04/02 00:57:51;;;;;;;69.70;37.03;;;10.50;99.90;;;;;;5014808;28;20045;-90
2021/04/02 01:00:19;;;;;;;80.25;38.72;;;10.50;99.90;;;;;;4996880;28;20129;-91
2021/04/02 01:02:45;;;;;;;79.60;39.08;;;10.50;99.90;;;;;;5014440;28;20442;-90
2021/04/02 01:05:21;;;;;;;77.03;38.85;;;10.50;99.90;;;;;;5014886;28;20137;-91
2021/04/02 01:07:52;;;;;;;81.88;38.95;;;10.50;99.90;;;;;;5016794;28;20125;-90
2021/04/02 01:10:20;;;;;;;81.43;38.83;;;10.40;99.90;;;;;;4997098;28;20104;-90
2021/04/02 01:12:55;;;;;;;76.20;38.95;;;10.30;99.90;;;;;;5016911;28;20041;-89
2021/04/02 01:15:30;;;;;;;75.63;39.25;;;10.30;99.90;;;;;;5014036;28;20137;-90
2021/04/02 01:18:02;;;;;;;76.03;39.50;;;10.20;99.90;;;;;;5014378;28;20132;-92
2021/04/02 01:20:32;;;;;;;77.50;40.03;;;10.20;99.90;;;;;;5010087;28;20479;-90
2021/04/02 01:23:06;;;;;;;80.18;38.75;;;10.10;99.90;;;;;;4997492;28;20041;-92
2021/04/02 01:25:44;;;;;;;77.40;39.10;;;10.00;99.90;;;;;;4996597;28;20660;-93
2021/04/02 01:28:41;;;;;;;78.32;39.20;;;10.00;99.90;;;;;;5013465;28;20184;-89
2021/04/02 01:31:11;;;;;;;76.18;39.95;;;9.90;99.90;;;;;;5013501;28;20065;-90
2021/04/02 01:33:39;;;;;;;82.63;39.60;;;9.80;99.90;;;;;;4996655;28;20037;-90
2021/04/02 01:36:12;;;;;;;76.97;40.15;;;9.70;99.90;;;;;;5013499;28;20042;-90
2021/04/02 01:38:42;;;;;;;84.05;42.55;;;9.80;99.90;;;;;;4998648;28;20121;-89
2021/04/02 01:41:13;;;;;;;83.53;42.97;;;9.80;99.90;;;;;;5013406;28;20204;-89
2021/04/02 01:43:45;;;;;;;76.80;40.80;;;9.70;99.90;;;;;;5013918;28;20128;-90
2021/04/02 01:46:13;;;;;;;;;;;9.70;99.90;;;;;;5014072;28;20045;-88
2021/04/02 01:48:42;;;;;;;72.97;38.80;;;9.70;99.90;;;;;;5015177;28;20845;-89
2021/04/02 01:51:10;;;;;;;77.82;39.63;;;9.60;99.90;;;;;;4996742;28;20124;-89
2021/04/02 01:53:43;;;;;;;76.90;39.60;;;9.60;99.90;;;;;;4996812;28;20052;-90
2021/04/02 01:56:15;;;;;;;73.25;39.72;;;9.50;99.90;;;;;;5025953;28;20054;-91
2021/04/02 01:58:44;;;;;;;76.60;38.88;;;9.40;99.90;;;;;;5026073;28;20046;-91
2021/04/02 02:01:16;;;;;;;81.07;39.47;;;9.30;99.90;;;;;;5027582;28;20073;-90
2021/04/02 02:03:51;;;;;;;84.55;42.88;;;9.30;99.90;;;;;;5019850;28;20084;-91
2021/04/02 02:06:18;;;;;;;80.90;40.92;;;9.20;99.90;;;;;;5031404;28;20045;-91
2021/04/02 02:08:48;;;;;;;75.28;42.58;;;9.10;99.90;;;;;;5024629;28;20108;-89
2021/04/02 02:11:22;;;;;;;84.38;41.00;;;9.10;99.90;;;;;;5015144;28;20140;-89
2021/04/02 02:14:00;;;;;;;78.72;41.17;;;9.10;99.90;;;;;;5008502;28;20126;-89
2021/04/02 02:16:30;;;;;;;77.90;41.22;;;9.10;99.90;;;;;;5007843;28;20125;-90
2021/04/02 02:19:00;;;;;;;73.53;41.47;;;9.20;99.90;;;;;;5012991;28;20440;-90
2021/04/02 02:21:30;;;;;;;75.47;39.97;;;9.20;99.90;;;;;;5012299;28;20111;-90
2021/04/02 02:23:59;;;;;;;74.35;38.80;;;9.10;99.90;;;;;;5012801;28;20438;-90
2021/04/02 02:26:26;;;;;;;73.38;39.90;;;9.00;99.90;;;;;;5012887;28;20081;-91
2021/04/02 02:28:52;;;;;;;79.03;41.80;;;9.00;99.90;;;;;;4979014;28;20042;-92
2021/04/02 02:31:19;;;;;;;73.30;37.70;;;8.90;99.90;;;;;;5012465;28;20042;-89
2021/04/02 02:33:48;;;;;;;68.38;37.15;;;9.00;99.90;;;;;;5013212;28;20038;-89
2021/04/02 02:36:17;;;;;;;63.33;35.55;;;9.10;99.90;;;;;;4995827;28;20046;-89
2021/04/02 02:38:46;;;;;;;68.18;35.90;;;9.00;99.90;;;;;;4996075;28;20129;-88
2021/04/02 02:41:12;;;;;;;64.53;35.67;;;9.00;99.90;;;;;;5001618;28;20554;-91
2021/04/02 02:43:40;;;;;;;73.28;36.50;;;8.90;99.90;;;;;;5019380;28;20131;-91
2021/04/02 02:46:09;;;;;;;62.42;36.78;;;8.90;99.90;;;;;;5019911;28;20089;-90
2021/04/02 02:48:38;;;;;;;65.05;35.08;;;8.90;99.90;;;;;;5014007;28;20092;-91
2021/04/02 02:51:06;;;;;;;62.70;34.65;;;8.80;99.90;;;;;;5012539;28;20137;-89
2021/04/02 02:53:33;;;;;;;66.53;33.53;;;8.70;99.90;;;;;;5012679;28;20046;-89
2021/04/02 02:56:01;;;;;;;58.50;32.47;;;8.60;99.90;;;;;;5008491;28;20135;-89
2021/04/02 02:58:29;;;;;;;61.97;34.75;;;8.50;99.90;;;;;;4995956;28;20049;-89
2021/04/02 03:00:57;;;;;;;60.90;33.70;;;8.50;99.90;;;;;;5012641;28;20462;-90
2021/04/02 03:03:26;;;;;;;64.18;33.35;;;8.40;99.90;;;;;;5012612;28;20041;-90
2021/04/02 03:05:55;;;;;;;65.10;34.13;;;8.40;99.90;;;;;;5012388;28;20125;-92
2021/04/02 03:08:26;;;;;;;63.90;34.45;;;8.30;99.90;;;;;;4996036;28;20117;-90
2021/04/02 03:10:58;;;;;;;63.30;34.97;;;8.30;99.90;;;;;;5012335;28;20455;-88
2021/04/02 03:13:30;;;;;;;57.92;32.60;;;8.20;99.90;;;;;;4995837;28;20108;-90
2021/04/02 03:16:03;;;;;;;60.45;33.08;;;8.20;99.90;;;;;;4995108;28;20060;-91
2021/04/02 03:18:32;;;;;;;66.32;33.20;;;8.20;99.90;;;;;;5012485;28;20423;-89
2021/04/02 03:21:05;;;;;;;57.17;31.52;;;8.20;99.90;;;;;;5013036;28;20450;-92
2021/04/02 03:23:31;;;;;;;55.42;32.45;;;8.20;99.90;;;;;;4991010;28;20462;-88
2021/04/02 03:26:02;;;;;;;60.40;30.33;;;8.20;99.90;;;;;;5013487;28;20418;-90
2021/04/02 03:28:30;;;;;;;59.03;30.83;;;8.20;99.90;;;;;;5006911;28;20104;-91
2021/04/02 03:30:57;;;;;;;58.75;31.60;;;8.10;99.90;;;;;;5007997;28;20050;-90
2021/04/02 03:33:29;;;;;;;53.58;29.77;;;8.10;99.90;;;;;;5015005;28;20052;-89
2021/04/02 03:36:05;;;;;;;55.43;29.13;;;8.10;99.90;;;;;;5013979;28;20125;-90
2021/04/02 03:38:38;;;;;;;47.25;27.70;;;8.10;99.90;;;;;;4997544;28;20052;-89
2021/04/02 03:41:10;;;;;;;54.75;29.27;;;8.00;99.90;;;;;;5013553;28;20498;-90
2021/04/02 03:43:38;;;;;;;40.03;21.27;;;8.00;99.90;;;;;;5015416;28;20042;-89
2021/04/02 03:46:07;;;;;;;54.70;28.58;;;7.90;99.90;;;;;;5012754;28;20046;-90
2021/04/02 03:48:36;;;;;;;57.90;28.80;;;7.90;99.90;;;;;;5013188;28;20081;-90
2021/04/02 03:51:09;;;;;;;48.45;28.25;;;7.80;99.90;;;;;;5019920;28;20053;-90
2021/04/02 03:53:46;;;;;;;49.03;27.48;;;7.70;99.90;;;;;;5026281;28;20072;-90
2021/04/02 03:56:25;;;;;;;51.53;26.95;;;7.60;99.90;;;;;;5029533;28;20057;-91
2021/04/02 03:58:55;;;;;;;36.22;20.80;;;7.70;99.90;;;;;;5037105;28;20080;-91
2021/04/02 04:01:28;;;;;;;44.03;22.23;;;7.70;99.90;;;;;;5037959;28;20049;-90
2021/04/02 04:03:58;;;;;;;38.75;21.13;;;7.70;99.90;;;;;;5021166;28;20072;-90
2021/04/02 04:06:26;;;;;;;46.53;21.35;;;7.70;99.90;;;;;;5019754;28;20644;-90
2021/04/02 04:09:00;;;;;;;34.42;19.13;;;7.60;99.90;;;;;;5015946;28;20073;-90
2021/04/02 04:11:30;;;;;;;29.77;17.65;;;7.50;99.90;;;;;;5016153;28;20426;-89
2021/04/02 04:13:58;;;;;;;31.63;16.40;;;7.50;99.90;;;;;;5015351;28;20046;-90
2021/04/02 04:16:26;;;;;;;33.35;15.05;;;7.40;99.90;;;;;;5014985;28;20118;-91
2021/04/02 04:18:58;;;;;;;27.40;14.38;;;7.20;99.90;;;;;;4999771;28;20054;-89
2021/04/02 04:21:31;;;;;;;25.65;13.77;;;7.20;99.90;;;;;;5015633;28;20049;-90
2021/04/02 04:24:00;;;;;;;25.38;13.93;;;7.10;99.90;;;;;;5015577;28;20108;-91
2021/04/02 04:26:28;;;;;;;19.90;11.25;;;7.00;99.90;;;;;;5016338;28;20117;-89
2021/04/02 04:28:56;;;;;;;19.45;10.32;;;6.90;99.90;;;;;;5015689;28;20514;-88
2021/04/02 04:31:24;;;;;;;23.17;9.18;;;6.90;99.90;;;;;;5017094;28;20042;-90
2021/04/02 04:33:58;;;;;;;15.57;8.20;;;6.90;99.90;;;;;;5012376;28;20049;-89
2021/04/02 04:36:26;;;;;;;19.17;8.07;;;6.70;99.90;;;;;;5013312;28;20121;-90
2021/04/02 04:38:55;;;;;;;14.95;7.65;;;6.60;99.90;;;;;;5013861;28;20120;-89
2021/04/02 04:41:24;;;;;;;13.23;7.10;;;6.60;99.90;;;;;;5013318;28;20050;-91
2021/04/02 04:43:57;;;;;;;17.05;7.43;;;6.50;99.90;;;;;;5015013;28;20593;-89
2021/04/02 04:46:23;;;;;;;13.68;7.32;;;6.40;99.90;;;;;;5014543;28;20407;-89
2021/04/02 04:48:50;;;;;;;11.75;6.43;;;6.40;99.90;;;;;;5014029;28;20077;-88
2021/04/02 04:52:00;;;;;;;12.25;6.57;;;6.30;99.90;;;;;;5014084;28;20069;-90
2021/04/02 04:54:30;;;;;;;9.98;5.70;;;6.30;99.90;;;;;;5016049;28;20054;-89
2021/04/02 04:56:58;;;;;;;9.70;5.10;;;6.20;99.90;;;;;;4998156;28;20456;-90
2021/04/02 04:59:28;;;;;;;12.02;5.45;;;6.20;99.90;;;;;;4998675;28;20140;-90
2021/04/02 05:02:02;;;;;;;9.90;4.90;;;6.20;99.90;;;;;;5009591;28;20057;-91
2021/04/02 05:04:30;;;;;;;9.13;4.07;;;6.10;99.90;;;;;;5026638;28;20041;-91
2021/04/02 05:07:01;;;;;;;12.45;3.97;;;6.10;99.90;;;;;;5029411;28;20046;-91
2021/04/02 05:09:31;;;;;;;14.68;4.07;;;6.00;99.90;;;;;;5029675;28;20050;-89
2021/04/02 05:12:01;;;;;;;10.52;4.72;;;5.90;99.90;;;;;;5032110;28;20096;-91
2021/04/02 05:14:28;;;;;;;12.23;4.55;;;5.90;99.90;;;;;;5010099;28;20065;-91
2021/04/02 05:16:56;;;;;;;15.98;5.15;;;5.80;99.90;;;;;;5016376;28;20046;-91
2021/04/02 05:19:22;;;;;;;12.52;4.40;;;5.70;99.90;;;;;;5000297;28;20077;-90
2021/04/02 05:21:49;;;;;;;9.05;4.88;;;5.60;99.90;;;;;;4998249;28;20049;-90
2021/04/02 05:24:15;;;;;;;7.70;4.50;;;5.60;99.90;;;;;;5016719;28;20046;-90
2021/04/02 05:26:42;;;;;;;9.30;4.00;;;5.60;99.90;;;;;;5017372;28;20136;-89
2021/04/02 05:29:09;;;;;;;10.02;4.38;;;5.60;99.90;;;;;;4998996;28;20514;-90
2021/04/02 05:31:36;;;;;;;14.80;4.60;;;5.60;99.90;;;;;;5014563;28;20041;-86
2021/04/02 05:34:13;;;;;;;8.98;4.20;;;5.60;99.90;;;;;;5013870;28;20065;-87
2021/04/02 05:36:42;;;;;;;9.15;4.15;;;5.80;99.90;;;;;;5014609;28;20069;-87
2021/04/02 05:39:09;;;;;;;6.65;4.25;;;5.80;99.90;;;;;;5014715;28;20050;-91
2021/04/02 05:41:56;;;;;;;9.45;3.97;;;5.90;99.90;;;;;;4997337;28;20057;-87
2021/04/02 05:44:27;;;;;;;8.25;3.58;;;6.00;99.90;;;;;;5011298;28;20055;-88
2021/04/02 05:46:56;;;;;;;6.88;3.92;;;6.00;99.90;;;;;;5014770;28;20564;-88
2021/04/02 05:49:25;;;;;;;4.43;3.40;;;6.10;99.90;;;;;;5011381;28;20539;-86
2021/04/02 05:51:52;;;;;;;8.27;3.75;;;6.20;99.90;;;;;;5013625;28;20073;-89
2021/04/02 05:54:36;;;;;;;6.60;3.78;;;6.20;99.90;;;;;;5013486;28;20379;-87
2021/04/02 05:57:04;;;;;;;5.80;3.45;;;6.20;99.90;;;;;;5001629;28;20129;-89
2021/04/02 05:59:31;;;;;;;11.73;4.47;;;6.30;99.90;;;;;;5014041;28;20092;-91
2021/04/02 06:02:06;;;;;;;6.70;4.43;;;6.30;99.90;;;;;;4997728;28;20081;-90
2021/04/02 06:04:34;;;;;;;12.50;3.95;;;6.40;99.90;;;;;;5013341;28;20057;-90
2021/04/02 06:07:01;;;;;;;7.22;4.18;;;6.40;99.90;;;;;;5014163;28;20085;-88
2021/04/02 06:09:28;;;;;;;10.68;3.90;;;6.40;99.90;;;;;;5013531;28;20046;-88
2021/04/02 06:11:54;;;;;;;6.15;3.55;;;6.40;99.90;;;;;;4995450;28;20041;-88
2021/04/02 06:14:22;;;;;;;8.00;3.83;;;6.50;99.90;;;;;;5010424;28;20072;-87
2021/04/02 06:16:49;;;;;;;10.75;3.85;;;6.60;99.90;;;;;;5000997;28;20054;-89
2021/04/02 06:19:17;;;;;;;8.07;3.95;;;6.70;99.90;;;;;;5019754;28;20050;-88
2021/04/02 06:21:54;;;;;;;8.45;4.53;;;6.80;99.90;;;;;;5005122;28;20076;-87
2021/04/02 06:24:47;;;;;;;11.82;4.15;;;6.90;99.90;;;;;;5022010;28;20050;-90
2021/04/02 06:27:17;;;;;;;13.13;4.95;;;7.10;99.90;;;;;;5010120;28;20073;-88
2021/04/02 06:29:47;;;;;;;12.75;4.32;;;7.30;99.90;;;;;;5020430;28;20435;-89
2021/04/02 06:32:15;;;;;;;11.95;4.25;;;7.70;99.90;;;;;;5013424;28;20068;-88
2021/04/02 06:34:49;;;;;;;9.73;3.97;;;8.10;99.90;;;;;;5003726;28;20467;-88
2021/04/02 06:37:17;;;;;;;10.30;3.80;;;8.40;99.90;;;;;;5014420;28;20061;-88
2021/04/02 06:39:53;;;;;;;7.53;4.25;;;9.00;97.50;;;;;;5013052;28;20549;-90
2021/04/02 06:42:33;;;;;;;6.57;4.15;;;9.30;99.40;;;;;;5012943;28;20133;-89
2021/04/02 06:45:09;;;;;;;8.32;3.50;;;9.60;97.50;;;;;;5012749;28;20045;-91
2021/04/02 06:47:41;;;;;;;6.43;4.00;;;9.80;93.90;;;;;;5015039;28;20129;-89
2021/04/02 06:50:17;;;;;;;6.30;4.47;;;10.20;91.20;;;;;;4999859;28;20108;-89
2021/04/02 06:52:51;;;;;;;9.38;3.95;;;10.50;90.90;;;;;;5012932;28;20053;-88
2021/04/02 06:55:19;;;;;;;8.82;4.07;;;10.80;89.70;;;;;;5012813;28;20061;-91
2021/04/02 06:57:53;;;;;;;9.50;4.18;;;11.00;87.50;;;;;;5013008;28;20184;-89
2021/04/02 07:00:24;;;;;;;14.32;4.43;;;11.40;84.00;;;;;;4999682;28;20523;-89
2021/04/02 07:02:54;;;;;;;7.77;4.57;;;11.50;79.20;;;;;;5012099;28;20104;-90
2021/04/02 07:05:25;;;;;;;8.45;4.00;;;11.80;78.10;;;;;;5013851;28;20084;-91
2021/04/02 07:07:58;;;;;;;9.45;4.13;;;12.00;74.40;;;;;;5014762;28;20141;-88
2021/04/02 07:10:27;;;;;;;7.53;4.75;;;12.00;75.50;;;;;;5004086;28;20133;-90
2021/04/02 07:13:00;;;;;;;9.52;5.10;;;12.00;76.00;;;;;;5016654;28;20042;-88
2021/04/02 07:15:31;;;;;;;12.93;5.20;;;11.70;75.30;;;;;;5002382;28;20062;-89
2021/04/02 07:17:59;;;;;;;10.70;4.95;;;11.40;79.40;;;;;;5011449;28;20149;-88
2021/04/02 07:20:27;;;;;;;8.00;4.93;;;11.10;80.30;;;;;;5014347;28;20050;-88
2021/04/02 07:22:55;;;;;;;9.10;4.78;;;11.10;80.50;;;;;;5017203;28;20076;-88
2021/04/02 07:25:22;;;;;;;12.60;5.57;;;11.20;83.30;;;;;;5021062;28;20145;-89
2021/04/02 07:27:51;;;;;;;9.07;5.25;;;11.10;84.50;;;;;;5016378;28;20096;-89
2021/04/02 07:30:20;;;;;;;9.10;4.97;;;11.00;85.50;;;;;;5029201;28;20077;-90
2021/04/02 07:32:50;;;;;;;10.85;5.75;;;11.30;85.10;;;;;;5035300;28;20049;-88
2021/04/02 07:35:22;;;;;;;7.63;4.10;;;11.60;83.10;;;;;;5016325;28;20050;-88
2021/04/02 07:37:54;;;;;;;6.85;4.57;;;12.10;80.60;;;;;;5023151;28;20046;-89
2021/04/02 07:40:25;;;;;;;10.07;4.68;;;12.50;74.20;;;;;;5004342;28;20521;-90
2021/04/02 07:42:57;;;;;;;6.00;3.95;;;12.40;74.60;;;;;;5019565;28;20050;-90
2021/04/02 07:45:30;;;;;;;6.25;3.75;;;12.40;69.70;;;;;;5018307;28;20049;-90
2021/04/02 07:48:13;;;;;;;9.57;4.72;;;12.10;73.50;;;;;;5019071;28;20530;-91
2021/04/02 07:50:52;;;;;;;9.48;4.47;;;12.10;73.90;;;;;;5014727;28;20050;-89
2021/04/02 07:53:28;;;;;;;12.38;5.30;;;11.90;75.70;;;;;;5019169;28;20128;-90
2021/04/02 07:56:09;;;;;;;9.10;5.07;;;12.00;75.80;;;;;;5019234;28;20042;-90
2021/04/02 07:58:46;;;;;;;11.18;4.90;;;12.70;72.00;;;;;;5000899;28;20603;-89
2021/04/02 08:01:15;;;;;;;8.77;4.40;;;13.30;67.60;;;;;;5019210;28;20057;-90
2021/04/02 08:03:44;;;;;;;9.50;4.90;;;13.80;65.80;;;;;;5000381;28;20046;-88
2021/04/02 08:06:31;;;;;;;7.85;4.53;;;14.40;63.20;;;;;;5001253;28;20386;-90
2021/04/02 08:09:07;;;;;;;9.98;4.78;;;14.90;60.10;;;;;;5018323;28;20037;-89
2021/04/02 08:11:55;;;;;;;;;;;;;;;;;;;;;
2021/04/02 08:15:02;;;;;;;7.78;4.78;;;15.70;59.60;;;;;;4983416;28;20084;-89
2021/04/02 08:17:56;;;;;;;9.60;5.10;;;16.20;58.30;;;;;;5006509;28;20037;-88
2021/04/02 08:20:23;;;;;;;6.00;4.00;;;16.80;55.50;;;;;;5015311;28;20050;-90
2021/04/02 08:23:19;;;;;;;;;;;;;;;;;;;;;
2021/04/02 08:26:35;;;;;;;7.85;4.90;;;17.50;54.60;;;;;;5053071;28;20048;-89
2021/04/02 08:29:08;;;;;;;9.82;5.25;;;18.30;50.20;;;;;;5035666;28;20079;-88
2021/04/02 08:31:50;;;;;;;9.93;5.17;;;17.80;51.90;;;;;;5009006;28;20599;-89
2021/04/02 08:34:20;;;;;;;12.40;4.75;;;17.60;51.20;;;;;;5030152;28;20296;-90
2021/04/02 08:36:49;;;;;;;9.52;5.60;;;18.50;49.90;;;;;;5029619;28;20069;-89
2021/04/02 08:39:17;;;;;;;10.75;5.03;;;18.00;51.10;;;;;;5023083;28;20045;-90
2021/04/02 08:41:44;;;;;;;8.13;4.85;;;17.90;49.30;;;;;;5021946;28;20409;-90
2021/04/02 08:44:25;;;;;;;9.50;5.05;;;18.40;50.00;;;;;;5032607;28;20049;-88
2021/04/02 08:46:51;;;;;;;8.68;4.90;;;18.60;50.10;;;;;;5031430;28;20046;-90
2021/04/02 08:49:18;;;;;;;9.30;5.15;;;18.20;49.60;;;;;;5030643;28;20115;-91
2021/04/02 08:51:48;;;;;;;7.90;4.80;;;18.40;50.30;;;;;;5028807;28;20072;-90
2021/04/02 08:54:41;;;;;;;6.53;5.15;;;19.20;48.30;;;;;;5028421;28;20077;-91
2021/04/02 08:57:11;;;;;;;8.50;4.72;;;19.70;46.90;;;;;;5033863;28;20045;-91
2021/04/02 08:59:43;;;;;;;8.90;5.28;;;19.40;47.70;;;;;;5017242;28;20521;-89
2021/04/02 09:02:16;;;;;;;8.50;5.18;;;19.40;47.90;;;;;;5027281;28;20053;-90
2021/04/02 09:04:47;;;;;;;7.43;4.75;;;19.30;47.80;;;;;;5013144;28;20045;-91
2021/04/02 09:07:17;;;;;;;6.18;4.93;;;19.70;48.20;;;;;;5028196;28;20053;-92
2021/04/02 09:09:50;;;;;;;6.97;5.13;;;20.70;44.50;;;;;;5018927;28;20046;-89
2021/04/02 09:12:17;;;;;;;;;;;20.50;43.90;;;;;;5022736;28;20057;-90
2021/04/02 09:14:52;;;;;;;8.15;5.25;;;19.70;46.20;;;;;;5019786;28;19917;-88
2021/04/02 09:17:28;;;;;;;9.93;5.80;;;19.60;46.10;;;;;;5028592;28;20134;-90
2021/04/02 09:20:01;;;;;;;12.10;5.82;;;19.80;45.90;;;;;;5034195;28;20252;-91
2021/04/02 09:22:28;;;;;;;8.23;5.53;;;20.30;44.70;;;;;;5029974;28;20065;-89
2021/04/02 09:24:55;;;;;;;6.72;5.45;;;20.60;45.30;;;;;;5033847;28;20037;-90
2021/04/02 09:27:23;;;;;;;9.73;6.07;;;20.40;44.60;;;;;;5017211;28;20180;-88
2021/04/02 09:29:59;;;;;;;10.32;7.32;;;20.30;46.00;;;;;;5021781;28;20064;-87
2021/04/02 09:32:30;;;;;;;12.40;6.35;;;20.30;44.60;;;;;;5011782;28;20073;-88
2021/04/02 09:35:01;;;;;;;10.45;6.50;;;20.10;46.20;;;;;;5027265;28;20057;-89
2021/04/02 09:37:30;;;;;;;10.13;6.00;;;20.80;44.70;;;;;;5019495;28;20474;-88
2021/04/02 09:40:09;;;;;;;9.20;6.10;;;20.80;43.90;;;;;;5016889;28;20057;-89
2021/04/02 09:42:37;;;;;;;8.85;6.32;;;21.40;42.10;;;;;;5035710;28;20042;-90
2021/04/02 09:45:11;;;;;;;11.52;6.15;;;21.90;40.90;;;;;;5028816;28;20100;-91
2021/04/02 09:47:54;;;;;;;8.93;6.50;;;21.70;42.60;;;;;;5025759;28;20046;-92
2021/04/02 09:50:25;;;;;;;9.48;6.13;;;21.70;41.60;;;;;;5032376;28;20127;-89
2021/04/02 09:52:51;;;;;;;8.27;6.57;;;20.90;43.00;;;;;;5033796;28;20041;-89
2021/04/02 09:55:23;;;;;;;8.57;6.72;;;20.70;45.60;;;;;;5005076;28;20157;-91
2021/04/02 09:58:03;;;;;;;9.30;6.38;;;21.10;45.20;;;;;;5015816;28;20127;-88
2021/04/02 10:00:31;;;;;;;8.65;6.78;;;21.20;43.90;;;;;;5016576;28;20576;-89
2021/04/02 10:02:58;;;;;;;9.32;6.75;;;20.70;42.90;;;;;;5016824;28;20246;-89
2021/04/02 10:05:42;;;;;;;10.27;6.70;;;20.30;44.80;;;;;;5020991;28;20148;-92
2021/04/02 10:08:30;;;;;;;8.93;6.95;;;20.20;45.30;;;;;;5028612;28;20179;-92
2021/04/02 10:11:10;;;;;;;12.35;8.98;;;21.50;42.00;;;;;;5024158;28;20133;-92
2021/04/02 10:13:37;;;;;;;12.20;8.25;;;22.40;40.30;;;;;;5028405;28;20065;-90
2021/04/02 10:16:06;;;;;;;13.82;9.30;;;22.10;41.70;;;;;;5023157;28;20075;-91
2021/04/02 10:19:05;;;;;;;;;;;;;;;;;;;;;
2021/04/02 10:22:17;;;;;;;;;;;;;;;;;;;;;
2021/04/02 10:25:14;;;;;;;10.30;8.05;;;22.10;39.50;;;;;;4987823;28;20102;-91
2021/04/02 10:28:02;;;;;;;12.88;7.72;;;22.00;42.10;;;;;;4993324;28;20058;-89
2021/04/02 10:30:31;;;;;;;10.27;7.68;;;21.70;43.10;;;;;;4984994;28;20046;-90
2021/04/02 10:32:58;;;;;;;9.52;7.20;;;20.80;42.80;;;;;;5014701;28;20046;-91
2021/04/02 10:36:00;;;;;;;10.48;7.15;;;20.90;45.00;;;;;;5010520;28;20061;-90
2021/04/02 10:38:55;;;;;;;9.50;7.43;;;21.80;42.40;;;;;;4996883;28;20047;-91
2021/04/02 10:42:03;;;;;;;8.52;7.47;;;21.90;42.90;;;;;;5007547;28;20054;-91
2021/04/02 10:44:30;;;;;;;14.13;8.40;;;21.10;40.80;;;;;;4979449;28;20515;-91
2021/04/02 10:47:01;;;;;;;12.18;7.68;;;21.20;42.60;;;;;;4989257;28;20461;-90
2021/04/02 10:50:07;;;;;;;14.77;8.68;;;22.10;40.40;;;;;;4993971;28;20063;-89
2021/04/02 10:52:58;;;;;;;16.92;12.65;;;21.90;41.70;;;;;;4992916;28;20050;-91
2021/04/02 10:55:39;;;;;;;35.50;31.85;;;22.10;40.70;;;;;;4979642;28;20066;-89
2021/04/02 10:58:23;;;;;;;21.63;18.67;;;23.10;37.50;;;;;;4989564;28;20137;-91
2021/04/02 11:01:08;;;;;;;12.30;10.02;;;23.90;37.70;;;;;;4986614;28;20049;-88
2021/04/02 11:07:32;;;;;;;72.20;61.38;;;23.80;37.60;;;;;;4985102;28;20122;-91
2021/04/02 11:13:18;;;;;;;8.40;6.68;;;24.30;36.00;;;;;;4968026;28;20146;-91
2021/04/02 11:15:48;;;;;;;8.55;7.20;;;23.70;35.10;;;;;;4994962;28;20068;-91
2021/04/02 11:18:16;;;;;;;9.50;6.97;;;23.20;37.40;;;;;;4992957;28;20058;-90
2021/04/02 11:20:48;;;;;;;9.00;6.30;;;23.50;38.60;;;;;;4992111;28;20061;-91
2021/04/02 11:23:44;;;;;;;10.20;7.03;;;23.60;38.00;;;;;;4990970;28;20038;-91
2021/04/02 11:26:36;;;;;;;8.93;5.85;;;24.00;37.50;;;;;;5034265;28;20041;-90
2021/04/02 11:29:12;;;;;;;7.53;6.80;;;24.80;35.00;;;;;;5044520;28;20373;-89
2021/04/02 11:31:59;;;;;;;8.00;6.75;;;23.90;36.00;;;;;;5023540;28;20045;-90
2021/04/02 11:38:03;;;;;;;9.55;6.32;;;24.20;36.70;;;;;;5005980;28;20049;-91
2021/04/02 11:41:03;;;;;;;10.93;6.38;;;25.00;35.10;;;;;;5045223;28;20104;-91
2021/04/02 11:43:59;;;;;;;7.97;6.25;;;25.30;32.20;;;;;;5360014;23;20053;-89
2021/04/02 11:46:26;;;;;;;7.28;6.25;;;24.60;33.70;;;;;;5047140;28;20087;-92
2021/04/02 11:52:50;;;;;;;;;;;;;;;;;;;;;
2021/04/02 11:55:37;;;;;;;6.80;5.88;;;24.90;33.60;;;;;;5047631;28;20049;-89
2021/04/02 12:02:42;;;;;;;5.65;4.50;;;24.80;32.70;;;;;;5014448;28;20379;-90
2021/04/02 12:13:21;;;;;;;7.47;4.35;;;25.50;29.20;;;;;;5012638;28;20048;-92
2021/04/02 12:16:04;;;;;;;5.38;4.22;;;25.70;31.20;;;;;;4926504;29;20497;-92
2021/04/02 12:18:38;;;;;;;6.18;5.00;;;25.90;31.00;;;;;;4936751;28;20115;-90
2021/04/02 12:21:19;;;;;;;8.13;4.65;;;25.60;32.10;;;;;;4901721;28;20150;-90
2021/04/02 12:23:46;;;;;;;8.30;5.13;;;25.90;30.40;;;;;;5013026;28;20466;-90
2021/04/02 12:26:13;;;;;;;6.95;4.70;;;26.40;29.20;;;;;;5016361;28;20053;-89
2021/04/02 12:28:46;;;;;;;5.43;4.85;;;26.90;29.30;;;;;;5021275;28;20053;-91
2021/04/02 12:31:13;;;;;;;5.68;4.78;;;26.90;29.50;;;;;;5041235;28;20355;-89
2021/04/02 12:33:51;;;;;;;;;;;;;;;;;;;;;
2021/04/02 12:36:26;;;;;;;4.95;4.07;;;26.20;29.70;;;;;;5043839;28;20132;-91
2021/04/02 12:42:14;;;;;;;6.60;4.55;;;26.20;30.60;;;;;;5052361;28;20071;-91
2021/04/02 12:44:41;;;;;;;6.03;5.03;;;26.20;30.80;;;;;;5049430;28;20045;-89
2021/04/02 12:47:11;;;;;;;5.97;4.60;;;25.40;30.40;;;;;;5053223;28;20049;-88
2021/04/02 12:49:40;;;;;;;5.68;5.05;;;25.30;31.30;;;;;;5055165;28;20049;-88
2021/04/02 12:52:07;;;;;;;4.85;4.22;;;24.50;30.80;;;;;;5037806;28;20057;-88
2021/04/02 12:54:34;;;;;;;5.32;4.82;;;24.00;32.50;;;;;;5025457;28;20064;-89
2021/04/02 12:57:01;;;;;;;6.65;5.05;;;24.30;33.30;;;;;;5033783;28;20041;-90
2021/04/02 12:59:27;;;;;;;4.97;4.47;;;24.80;31.60;;;;;;5035282;28;20415;-87
2021/04/02 13:01:54;;;;;;;7.50;4.57;;;25.40;29.70;;;;;;5033431;28;20145;-91
2021/04/02 13:04:20;;;;;;;6.47;4.80;;;25.30;30.80;;;;;;5047212;28;20096;-89
2021/04/02 13:06:47;;;;;;;5.35;4.82;;;25.10;30.50;;;;;;5054555;28;20107;-88
2021/04/02 13:09:14;;;;;;;8.65;5.00;;;24.80;31.90;;;;;;5048817;28;20087;-91
2021/04/02 13:11:48;;;;;;;6.95;5.07;;;23.80;32.20;;;;;;5052114;28;20045;-90
2021/04/02 13:14:14;;;;;;;7.45;5.13;;;23.60;34.70;;;;;;5037496;28;20425;-87
2021/04/02 13:16:43;;;;;;;5.30;4.80;;;23.80;34.50;;;;;;5054798;28;20203;-89
2021/04/02 13:19:17;;;;;;;4.78;4.38;;;24.60;34.80;;;;;;5053271;28;20497;-89
2021/04/02 13:21:44;;;;;;;6.38;4.53;;;25.30;31.60;;;;;;5054143;28;20041;-90
2021/04/02 13:24:10;;;;;;;7.03;4.38;;;25.50;30.30;;;;;;5055342;28;20060;-90
2021/04/02 13:26:38;;;;;;;7.78;4.43;;;25.80;30.50;;;;;;5049932;28;20474;-88
2021/04/02 13:29:13;;;;;;;5.28;4.30;;;25.40;29.60;;;;;;5048243;28;20109;-90
2021/04/02 13:31:39;;;;;;;6.78;4.82;;;25.70;28.50;;;;;;5026689;28;20053;-87
2021/04/02 13:34:08;;;;;;;5.32;4.50;;;25.50;30.50;;;;;;5020656;28;20053;-89
2021/04/02 13:36:34;;;;;;;7.82;4.40;;;25.50;29.80;;;;;;5026119;28;20488;-91
2021/04/02 13:39:01;;;;;;;8.20;4.30;;;25.20;30.50;;;;;;5049397;28;20045;-90
2021/04/02 13:41:33;;;;;;;5.55;4.38;;;26.00;29.20;;;;;;5043908;28;20071;-89
2021/04/02 13:44:00;;;;;;;11.20;7.53;;;26.50;28.40;;;;;;5037127;28;20111;-91
2021/04/02 13:46:28;;;;;;;4.75;4.35;;;26.10;29.10;;;;;;5052352;28;20049;-89